createdAt,value
2022-12-03T00:00:16.823Z,22.77
2022-12-03T00:01:37.983Z,51.90
2022-12-03T00:02:59.327Z,170.70
2022-12-03T00:04:20.490Z,134.70
2022-12-03T00:05:48.299Z,102.60
2022-12-03T00:07:09.946Z,70.95
2022-12-03T00:08:31.231Z,70.47
2022-12-03T00:09:52.464Z,101.10
2022-12-03T00:11:13.726Z,101.10
2022-12-03T00:12:35.185Z,59.78
2022-12-03T00:13:56.101Z,73.22
2022-12-03T00:15:17.506Z,90.40
2022-12-03T00:16:38.351Z,61.38
2022-12-03T00:17:59.792Z,80.20
2022-12-03T00:19:21.156Z,75.35
2022-12-03T00:20:42.460Z,87.60
2022-12-03T00:22:03.700Z,86.18
2022-12-03T00:23:25.309Z,68.20
2022-12-03T00:24:46.824Z,69.53
2022-12-03T00:26:07.903Z,76.28
2022-12-03T00:27:28.660Z,80.10
2022-12-03T00:28:49.949Z,80.38
2022-12-03T00:30:11.723Z,79.70
2022-12-03T00:31:33.120Z,65.38
2022-12-03T00:32:54.081Z,69.38
2022-12-03T00:34:15.500Z,64.40
2022-12-03T00:35:36.688Z,61.47
2022-12-03T00:36:58.005Z,53.92
2022-12-03T00:38:19.218Z,56.00
2022-12-03T00:39:40.414Z,58.38
2022-12-03T00:41:01.283Z,51.95
2022-12-03T00:42:22.556Z,50.85
2022-12-03T00:43:43.802Z,56.72
2022-12-03T00:45:06.632Z,46.03
2022-12-03T00:46:27.773Z,35.63
2022-12-03T00:47:48.840Z,38.40
2022-12-03T00:49:10.071Z,37.30
2022-12-03T00:50:31.483Z,44.20
2022-12-03T00:51:52.706Z,44.15
2022-12-03T00:53:13.593Z,40.17
2022-12-03T00:54:34.885Z,41.33
2022-12-03T00:55:55.759Z,50.90
2022-12-03T00:57:17.866Z,56.75
2022-12-03T00:58:39.114Z,47.03
2022-12-03T01:00:00.251Z,46.33
2022-12-03T01:01:21.595Z,35.75
2022-12-03T01:02:42.421Z,29.92
2022-12-03T01:04:04.039Z,26.75
2022-12-03T01:05:25.278Z,32.20
2022-12-03T01:06:46.393Z,31.92
2022-12-03T01:08:07.648Z,30.40
2022-12-03T01:09:28.577Z,25.95
2022-12-03T01:10:49.633Z,28.45
2022-12-03T01:12:12.145Z,27.40
2022-12-03T01:13:33.300Z,21.70
2022-12-03T01:14:54.982Z,16.85
2022-12-03T01:16:16.356Z,14.95
2022-12-03T01:17:38.278Z,13.15
2022-12-03T01:18:59.156Z,16.52
2022-12-03T01:20:20.448Z,11.27
2022-12-03T01:21:46.622Z,17.33
2022-12-03T01:23:08.057Z,24.83
2022-12-03T01:24:29.330Z,42.88
2022-12-03T01:25:50.183Z,20.25
2022-12-03T01:27:11.422Z,17.63
2022-12-03T01:28:32.630Z,34.60
2022-12-03T01:29:53.718Z,46.53
2022-12-03T01:31:33.303Z,40.63
2022-12-03T01:32:54.853Z,30.88
2022-12-03T01:34:16.076Z,34.75
2022-12-03T01:35:36.839Z,53.25
2022-12-03T01:36:58.360Z,28.17
2022-12-03T01:38:19.187Z,35.33
2022-12-03T01:39:40.933Z,25.17
2022-12-03T01:41:05.919Z,33.30
2022-12-03T01:42:33.036Z,34.58
2022-12-03T01:43:55.356Z,24.33
2022-12-03T01:45:23.854Z,23.45
2022-12-03T01:46:46.665Z,23.15
2022-12-03T01:48:09.660Z,20.60
2022-12-03T01:49:43.067Z,19.30
2022-12-03T01:51:04.415Z,25.60
2022-12-03T01:52:30.395Z,29.08
2022-12-03T01:53:51.738Z,24.52
2022-12-03T01:55:26.518Z,25.25
2022-12-03T01:56:48.286Z,29.50
2022-12-03T01:58:13.771Z,25.10
2022-12-03T01:59:38.676Z,24.27
2022-12-03T02:01:02.729Z,23.85
2022-12-03T02:02:29.904Z,26.48
2022-12-03T02:03:50.990Z,25.98
2022-12-03T02:05:18.946Z,26.75
2022-12-03T02:06:40.715Z,28.17
2022-12-03T02:08:02.118Z,31.60
2022-12-03T02:09:23.440Z,34.47
2022-12-03T02:10:44.589Z,35.65
2022-12-03T02:12:06.205Z,37.10
2022-12-03T02:13:27.515Z,39.35
2022-12-03T02:14:49.306Z,43.78
2022-12-03T02:16:11.048Z,45.15
2022-12-03T02:17:32.786Z,42.45
2022-12-03T02:18:53.680Z,40.88
2022-12-03T02:20:14.880Z,37.22
2022-12-03T02:21:48.088Z,41.92
2022-12-03T02:23:43.736Z,41.60
2022-12-03T02:25:24.675Z,38.83
2022-12-03T02:26:46.282Z,46.95
2022-12-03T02:28:09.781Z,45.88
2022-12-03T02:29:31.050Z,43.33
2022-12-03T02:30:51.900Z,44.63
2022-12-03T02:32:13.080Z,45.70
2022-12-03T02:33:34.640Z,48.03
2022-12-03T02:34:56.684Z,46.72
2022-12-03T02:36:18.133Z,50.63
2022-12-03T02:37:38.913Z,46.20
2022-12-03T02:39:00.922Z,46.95
2022-12-03T02:40:24.650Z,44.08
2022-12-03T02:42:04.075Z,40.22
2022-12-03T02:43:25.810Z,30.80
2022-12-03T02:44:46.987Z,28.10
2022-12-03T02:46:09.058Z,26.52
2022-12-03T02:47:32.114Z,28.42
2022-12-03T02:48:53.053Z,24.67
2022-12-03T02:50:18.542Z,27.35
2022-12-03T02:51:39.439Z,23.58
2022-12-03T02:53:03.843Z,27.17
2022-12-03T02:54:25.563Z,32.47
2022-12-03T02:55:47.790Z,43.20
2022-12-03T02:57:09.064Z,40.83
2022-12-03T02:58:32.744Z,42.92
2022-12-03T02:59:53.850Z,39.47
2022-12-03T03:01:15.847Z,37.40
2022-12-03T03:02:39.224Z,36.20
2022-12-03T03:04:02.683Z,37.90
2022-12-03T03:05:24.406Z,32.83
2022-12-03T03:06:46.929Z,26.92
2022-12-03T03:08:09.029Z,22.13
2022-12-03T03:09:30.222Z,29.08
2022-12-03T03:10:51.726Z,15.93
2022-12-03T03:12:12.966Z,11.20
2022-12-03T03:13:35.572Z,10.50
2022-12-03T03:14:58.390Z,11.45
2022-12-03T03:16:19.714Z,13.45
2022-12-03T03:17:42.502Z,16.48
2022-12-03T03:19:03.666Z,22.25
2022-12-03T03:20:24.604Z,7.72
2022-12-03T03:21:46.029Z,29.52
2022-12-03T03:23:17.933Z,16.00
2022-12-03T03:24:39.342Z,14.55
2022-12-03T03:26:05.577Z,8.77
2022-12-03T03:27:27.148Z,8.13
2022-12-03T03:28:50.296Z,5.85
2022-12-03T03:30:12.069Z,6.68
2022-12-03T03:31:33.161Z,5.90
2022-12-03T03:32:54.170Z,148.73
2022-12-03T03:34:15.978Z,156.38
2022-12-03T03:35:38.125Z,142.35
2022-12-03T03:36:59.305Z,144.48
2022-12-03T03:38:22.188Z,138.80
2022-12-03T03:39:43.385Z,121.57
2022-12-03T03:41:06.202Z,111.28
2022-12-03T03:42:27.593Z,57.63
2022-12-03T03:43:50.060Z,17.48
2022-12-03T03:45:12.722Z,13.30
2022-12-03T03:46:35.259Z,6.65
2022-12-03T03:48:00.134Z,6.10
2022-12-03T03:49:22.181Z,5.47
2022-12-03T03:50:44.587Z,7.25
2022-12-03T03:52:05.861Z,4.40
2022-12-03T03:53:27.092Z,4.38
2022-12-03T03:54:48.264Z,5.50
2022-12-03T03:56:09.966Z,6.28
2022-12-03T03:57:30.939Z,5.05
2022-12-03T03:58:52.196Z,4.07
2022-12-03T04:00:13.590Z,4.80
2022-12-03T04:01:35.108Z,3.70
2022-12-03T04:02:56.550Z,7.50
2022-12-03T04:04:20.943Z,9.77
2022-12-03T04:05:42.032Z,15.07
2022-12-03T04:07:03.296Z,20.05
2022-12-03T04:08:24.600Z,13.07
2022-12-03T04:09:45.673Z,9.10
2022-12-03T04:11:29.848Z,5.82
2022-12-03T04:12:56.855Z,6.30
2022-12-03T04:14:17.888Z,4.90
2022-12-03T04:15:39.367Z,5.75
2022-12-03T04:17:02.741Z,5.22
2022-12-03T04:18:42.223Z,3.88
2022-12-03T04:20:03.895Z,3.78
2022-12-03T04:21:43.309Z,3.40
2022-12-03T04:23:05.016Z,3.45
2022-12-03T04:24:26.150Z,4.03
2022-12-03T04:26:05.643Z,3.05
2022-12-03T04:27:45.370Z,2.97
2022-12-03T04:29:06.225Z,4.15
2022-12-03T04:30:27.610Z,6.20
2022-12-03T04:32:07.292Z,5.00
2022-12-03T04:33:46.618Z,2.90
2022-12-03T04:35:28.369Z,3.20
2022-12-03T04:36:49.771Z,3.28
2022-12-03T04:38:12.000Z,3.70
2022-12-03T04:39:33.278Z,4.93
2022-12-03T04:41:06.452Z,10.10
2022-12-03T04:42:27.633Z,11.73
2022-12-03T04:44:07.029Z,17.63
2022-12-03T04:45:28.066Z,12.85
2022-12-03T04:46:49.236Z,13.40
2022-12-03T04:48:10.658Z,13.77
2022-12-03T04:49:32.418Z,12.48
2022-12-03T04:50:53.832Z,12.40
2022-12-03T04:52:16.662Z,13.73
2022-12-03T04:53:41.895Z,15.57
2022-12-03T04:55:07.200Z,14.93
2022-12-03T04:56:28.155Z,17.52
2022-12-03T04:57:49.373Z,19.83
2022-12-03T04:59:15.758Z,32.25
2022-12-03T05:00:37.074Z,34.10
2022-12-03T05:01:58.588Z,37.47
2022-12-03T05:03:19.674Z,40.92
2022-12-03T05:04:41.128Z,40.70
2022-12-03T05:06:02.248Z,43.55
2022-12-03T05:07:23.500Z,39.28
2022-12-03T05:08:44.649Z,38.22
2022-12-03T05:10:06.931Z,41.00
2022-12-03T05:11:28.250Z,35.95
2022-12-03T05:12:49.283Z,29.83
2022-12-03T05:14:11.262Z,24.30
2022-12-03T05:15:32.361Z,28.77
2022-12-03T05:16:53.293Z,40.25
2022-12-03T05:18:14.398Z,107.10
2022-12-03T05:19:53.948Z,91.50
2022-12-03T05:21:15.168Z,83.60
2022-12-03T05:22:36.723Z,89.90
2022-12-03T05:23:57.924Z,86.78
2022-12-03T05:25:18.775Z,102.28
2022-12-03T05:26:39.791Z,81.00
2022-12-03T05:28:00.710Z,65.03
2022-12-03T05:29:22.061Z,73.38
2022-12-03T05:30:44.287Z,75.57
2022-12-03T05:32:24.206Z,59.00
2022-12-03T05:33:45.269Z,56.35
2022-12-03T05:35:06.787Z,57.78
2022-12-03T05:36:27.946Z,45.22
2022-12-03T05:37:48.979Z,35.33
2022-12-03T05:39:10.295Z,47.55
2022-12-03T05:40:31.536Z,50.60
2022-12-03T05:42:11.294Z,48.35
2022-12-03T05:43:32.155Z,55.75
2022-12-03T05:44:53.521Z,39.90
2022-12-03T05:46:14.741Z,44.28
2022-12-03T05:47:35.919Z,64.45
2022-12-03T05:48:57.163Z,59.25
2022-12-03T05:50:19.546Z,48.08
2022-12-03T05:51:40.435Z,44.63
2022-12-03T05:53:01.636Z,39.42
2022-12-03T05:54:23.115Z,40.28
2022-12-03T05:55:44.407Z,64.35
2022-12-03T05:57:05.599Z,56.58
2022-12-03T05:58:26.941Z,70.40
2022-12-03T05:59:47.950Z,116.18
2022-12-03T06:01:08.707Z,66.32
2022-12-03T06:02:30.091Z,80.35
2022-12-03T06:03:51.319Z,62.45
2022-12-03T06:05:14.710Z,69.82
2022-12-03T06:06:35.693Z,65.15
2022-12-03T06:07:56.744Z,62.42
2022-12-03T06:09:18.060Z,71.30
2022-12-03T06:10:39.342Z,66.18
2022-12-03T06:12:00.906Z,62.47
2022-12-03T06:13:21.911Z,64.63
2022-12-03T06:14:43.093Z,59.00
2022-12-03T06:16:04.457Z,65.10
2022-12-03T06:17:25.696Z,63.10
2022-12-03T06:18:46.706Z,69.00
2022-12-03T06:20:09.140Z,59.40
2022-12-03T06:21:30.129Z,67.40
2022-12-03T06:22:51.463Z,73.63
2022-12-03T06:24:12.992Z,125.95
2022-12-03T06:25:34.227Z,135.70
2022-12-03T06:26:55.709Z,117.68
2022-12-03T06:28:16.602Z,113.70
2022-12-03T06:29:37.988Z,137.18
2022-12-03T06:30:58.955Z,101.32
2022-12-03T06:32:20.118Z,104.68
2022-12-03T06:33:41.039Z,102.95
2022-12-03T06:35:02.460Z,99.00
2022-12-03T06:36:23.662Z,79.43
2022-12-03T06:37:44.864Z,85.15
2022-12-03T06:39:06.065Z,82.97
2022-12-03T06:40:27.365Z,76.82
2022-12-03T06:41:48.635Z,71.00
2022-12-03T06:43:09.931Z,79.22
2022-12-03T06:44:30.682Z,74.93
2022-12-03T06:45:51.747Z,99.90
2022-12-03T06:47:12.973Z,105.50
2022-12-03T06:48:34.342Z,110.47
2022-12-03T06:49:55.561Z,107.97
2022-12-03T06:51:16.588Z,159.88
2022-12-03T06:52:37.774Z,171.75
2022-12-03T06:53:59.086Z,203.73
2022-12-03T06:55:20.242Z,173.18
2022-12-03T06:56:45.194Z,155.15
2022-12-03T06:58:06.407Z,147.07
2022-12-03T06:59:28.815Z,125.93
2022-12-03T07:00:49.986Z,109.28
2022-12-03T07:02:12.651Z,108.15
2022-12-03T07:03:33.925Z,91.82
2022-12-03T07:04:55.096Z,88.53
2022-12-03T07:06:16.648Z,75.22
2022-12-03T07:07:37.660Z,100.07
2022-12-03T07:08:58.791Z,103.93
2022-12-03T07:10:20.027Z,115.05
2022-12-03T07:11:41.055Z,118.47
2022-12-03T07:13:02.584Z,122.20
2022-12-03T07:14:23.617Z,111.63
2022-12-03T07:15:44.882Z,95.82
2022-12-03T07:17:06.085Z,70.45
2022-12-03T07:18:27.378Z,73.95
2022-12-03T07:19:48.379Z,69.85
2022-12-03T07:21:09.811Z,80.03
2022-12-03T07:22:30.908Z,75.40
2022-12-03T07:23:52.188Z,81.70
2022-12-03T07:25:19.540Z,104.00
2022-12-03T07:26:44.196Z,160.93
2022-12-03T07:28:05.455Z,174.18
2022-12-03T07:29:26.381Z,157.88
2022-12-03T07:30:47.210Z,161.32
2022-12-03T07:32:08.424Z,147.57
2022-12-03T07:33:29.367Z,136.98
2022-12-03T07:34:51.673Z,116.15
2022-12-03T07:36:13.168Z,89.70
2022-12-03T07:37:34.784Z,126.85
2022-12-03T07:38:57.100Z,74.38
2022-12-03T07:40:20.268Z,236.32
2022-12-03T07:41:41.450Z,342.08
2022-12-03T07:43:04.908Z,246.40
2022-12-03T07:44:26.466Z,236.90
2022-12-03T07:45:47.963Z,87.80
2022-12-03T07:47:09.017Z,81.30
2022-12-03T07:48:30.252Z,54.20
2022-12-03T07:49:52.452Z,55.05
2022-12-03T07:51:15.597Z,197.10
2022-12-03T07:52:36.885Z,194.07
2022-12-03T07:53:58.122Z,79.68
2022-12-03T07:55:20.052Z,98.60
2022-12-03T07:56:42.590Z,70.45
2022-12-03T07:58:03.736Z,145.23
2022-12-03T07:59:24.844Z,73.45
2022-12-03T08:00:45.905Z,78.70
2022-12-03T08:02:07.174Z,81.53
2022-12-03T08:03:28.496Z,63.97
2022-12-03T08:04:49.525Z,132.82
2022-12-03T08:06:10.808Z,152.20
2022-12-03T08:07:31.968Z,130.63
2022-12-03T08:08:52.775Z,86.55
2022-12-03T08:10:13.877Z,56.80
2022-12-03T08:11:35.029Z,63.17
2022-12-03T08:12:59.282Z,63.38
2022-12-03T08:14:20.918Z,37.90
2022-12-03T08:15:42.338Z,84.53
2022-12-03T08:17:10.075Z,40.58
2022-12-03T08:18:31.343Z,21.98
2022-12-03T08:19:53.345Z,22.38
2022-12-03T08:21:17.157Z,22.75
2022-12-03T08:22:38.256Z,17.88
2022-12-03T08:23:59.564Z,14.55
2022-12-03T08:25:30.502Z,26.75
2022-12-03T08:26:51.665Z,15.38
2022-12-03T08:28:19.160Z,15.13
2022-12-03T08:29:40.229Z,15.57
2022-12-03T08:31:18.095Z,19.20
2022-12-03T08:32:39.148Z,16.98
2022-12-03T08:34:26.222Z,46.22
2022-12-03T08:35:50.885Z,43.33
2022-12-03T08:37:21.195Z,19.98
2022-12-03T08:38:49.417Z,33.47
2022-12-03T08:40:23.795Z,21.48
2022-12-03T08:42:05.165Z,37.35
2022-12-03T08:43:32.959Z,22.05
2022-12-03T08:44:55.776Z,20.88
2022-12-03T08:46:19.488Z,25.13
2022-12-03T08:47:40.815Z,33.38
2022-12-03T08:49:02.017Z,40.08
2022-12-03T08:50:32.135Z,39.70
2022-12-03T08:52:00.562Z,23.20
2022-12-03T08:53:36.255Z,18.65
2022-12-03T08:54:57.890Z,14.05
2022-12-03T08:56:28.037Z,237.60
2022-12-03T08:59:32.358Z,27.13
2022-12-03T09:01:16.587Z,35.13
2022-12-03T09:02:37.787Z,25.70
2022-12-03T09:04:16.320Z,21.45
2022-12-03T09:05:37.494Z,22.05
2022-12-03T09:06:58.882Z,15.88
2022-12-03T09:08:20.197Z,13.45
2022-12-03T09:09:41.870Z,14.38
2022-12-03T09:11:02.948Z,17.67
2022-12-03T09:12:24.215Z,19.73
2022-12-03T09:13:45.534Z,18.92
2022-12-03T09:15:07.366Z,22.23
2022-12-03T09:16:28.561Z,14.98
2022-12-03T09:17:49.900Z,14.05
2022-12-03T09:19:10.751Z,19.88
2022-12-03T09:20:35.019Z,16.08
2022-12-03T09:21:58.609Z,16.77
2022-12-03T09:23:19.538Z,19.92
2022-12-03T09:24:40.733Z,14.55
2022-12-03T09:26:02.074Z,63.60
2022-12-03T09:27:23.282Z,29.73
2022-12-03T09:28:44.613Z,19.48
2022-12-03T09:30:06.529Z,19.58
2022-12-03T09:31:27.559Z,37.42
2022-12-03T09:32:48.712Z,23.98
2022-12-03T09:34:10.314Z,42.47
2022-12-03T09:35:31.210Z,58.03
2022-12-03T09:36:52.573Z,37.75
2022-12-03T09:38:13.934Z,43.92
2022-12-03T09:39:35.465Z,35.08
2022-12-03T09:40:56.835Z,26.30
2022-12-03T09:42:18.563Z,25.88
2022-12-03T09:45:20.850Z,24.50
2022-12-03T09:46:43.281Z,28.17
2022-12-03T09:48:04.888Z,29.30
2022-12-03T09:49:27.291Z,26.75
2022-12-03T09:50:49.484Z,37.97
2022-12-03T09:52:21.385Z,23.85
2022-12-03T09:53:42.951Z,46.67
2022-12-03T09:55:11.644Z,17.73
2022-12-03T09:56:35.910Z,14.95
2022-12-03T09:57:57.538Z,26.10
2022-12-03T09:59:19.123Z,21.73
2022-12-03T10:00:41.884Z,12.30
2022-12-03T10:02:03.558Z,14.73
2022-12-03T10:03:30.258Z,18.00
2022-12-03T10:04:53.397Z,14.90
2022-12-03T10:06:21.105Z,18.80
2022-12-03T10:07:42.731Z,18.88
2022-12-03T10:09:04.395Z,31.98
2022-12-03T10:10:25.364Z,32.05
2022-12-03T10:11:46.179Z,43.67
2022-12-03T10:13:12.431Z,23.83
2022-12-03T10:14:33.308Z,25.45
2022-12-03T10:15:56.810Z,26.17
2022-12-03T10:17:18.176Z,28.10
2022-12-03T10:18:43.611Z,16.42
2022-12-03T10:20:05.494Z,18.52
2022-12-03T10:21:40.299Z,16.92
2022-12-03T10:23:01.170Z,10.73
2022-12-03T10:24:27.278Z,8.73
2022-12-03T10:26:00.190Z,30.88
2022-12-03T10:27:31.032Z,12.20
2022-12-03T10:28:53.258Z,12.10
2022-12-03T10:30:23.311Z,14.00
2022-12-03T10:31:45.033Z,31.58
2022-12-03T10:33:17.376Z,36.55
2022-12-03T10:34:41.887Z,23.63
2022-12-03T10:36:15.415Z,11.38
2022-12-03T10:37:36.628Z,10.98
2022-12-03T10:39:16.910Z,16.10
2022-12-03T10:40:39.656Z,18.83
2022-12-03T10:42:16.216Z,18.55
2022-12-03T10:43:37.475Z,14.10
2022-12-03T10:45:24.865Z,29.08
2022-12-03T10:47:05.334Z,26.05
2022-12-03T10:48:27.546Z,15.90
2022-12-03T10:50:03.286Z,19.08
2022-12-03T10:51:24.552Z,18.85
2022-12-03T10:52:46.642Z,21.20
2022-12-03T10:54:35.504Z,21.20
2022-12-03T10:55:59.798Z,21.83
2022-12-03T10:57:21.314Z,25.98
2022-12-03T10:58:42.438Z,22.33
2022-12-03T11:00:04.639Z,21.75
2022-12-03T11:01:27.020Z,26.95
2022-12-03T11:02:56.080Z,24.65
2022-12-03T11:04:20.864Z,26.60
2022-12-03T11:05:41.897Z,24.85
2022-12-03T11:07:09.923Z,18.63
2022-12-03T11:08:34.776Z,15.80
2022-12-03T11:09:56.022Z,18.95
2022-12-03T11:11:39.510Z,20.08
2022-12-03T11:13:44.321Z,22.40
2022-12-03T11:15:07.289Z,89.88
2022-12-03T11:16:51.557Z,155.27
2022-12-03T11:18:38.593Z,282.40
2022-12-03T11:19:59.687Z,141.20
2022-12-03T11:21:20.776Z,40.50
2022-12-03T11:22:47.254Z,74.00
2022-12-03T11:24:19.837Z,44.83
2022-12-03T11:25:50.739Z,17.23
2022-12-03T11:27:11.972Z,17.73
2022-12-03T11:28:35.700Z,44.85
2022-12-03T11:30:00.450Z,27.77
2022-12-03T11:31:33.400Z,31.75
2022-12-03T11:32:54.580Z,27.35
2022-12-03T11:34:18.530Z,27.92
2022-12-03T11:36:02.059Z,26.70
2022-12-03T11:37:24.583Z,25.15
2022-12-03T11:38:54.605Z,32.17
2022-12-03T11:40:18.793Z,28.90
2022-12-03T11:41:40.041Z,23.85
2022-12-03T11:43:02.152Z,31.60
2022-12-03T11:44:32.461Z,28.08
2022-12-03T11:45:55.421Z,27.40
2022-12-03T11:47:18.646Z,41.00
2022-12-03T11:48:46.488Z,33.10
2022-12-03T11:50:19.882Z,21.55
2022-12-03T11:51:44.862Z,26.60
2022-12-03T11:53:35.654Z,25.23
2022-12-03T11:55:04.378Z,69.38
2022-12-03T11:56:28.735Z,49.35
2022-12-03T11:57:56.704Z,52.67
2022-12-03T11:59:19.286Z,32.05
2022-12-03T12:00:48.464Z,33.08
2022-12-03T12:02:29.660Z,23.42
2022-12-03T12:03:50.926Z,61.30
2022-12-03T12:05:20.037Z,25.10
2022-12-03T12:06:43.287Z,21.40
2022-12-03T12:08:04.774Z,51.08
2022-12-03T12:09:55.013Z,79.28
2022-12-03T12:11:20.343Z,43.53
2022-12-03T12:12:51.067Z,26.67
2022-12-03T12:14:26.453Z,49.33
2022-12-03T12:15:47.533Z,31.70
2022-12-03T12:17:29.875Z,30.58
2022-12-03T12:18:55.173Z,28.77
2022-12-03T12:20:27.236Z,48.45
2022-12-03T12:21:48.618Z,88.28
2022-12-03T12:23:27.902Z,23.35
2022-12-03T12:25:00.094Z,22.73
2022-12-03T12:26:21.280Z,35.65
2022-12-03T12:27:47.280Z,29.60
2022-12-03T12:29:08.356Z,15.90
2022-12-03T12:30:29.579Z,15.65
2022-12-03T12:31:54.174Z,17.33
2022-12-03T12:33:24.457Z,18.95
2022-12-03T12:34:50.876Z,19.67
2022-12-03T12:36:12.028Z,83.68
2022-12-03T12:37:36.993Z,20.10
2022-12-03T12:38:59.873Z,16.05
2022-12-03T12:40:24.712Z,22.75
2022-12-03T12:41:48.963Z,21.58
2022-12-03T12:43:29.626Z,27.13
2022-12-03T12:44:50.685Z,26.25
2022-12-03T12:46:46.134Z,72.80
2022-12-03T12:48:10.159Z,22.58
2022-12-03T12:49:31.595Z,35.78
2022-12-03T12:51:10.984Z,79.65
2022-12-03T12:52:32.277Z,21.33
2022-12-03T12:53:53.908Z,44.85
2022-12-03T12:55:16.603Z,24.55
2022-12-03T12:56:37.735Z,36.92
2022-12-03T12:58:05.814Z,291.13
2022-12-03T12:59:26.864Z,140.80
2022-12-03T13:00:54.726Z,102.47
2022-12-03T13:02:31.735Z,221.35
2022-12-03T13:03:53.421Z,62.65
2022-12-03T13:05:14.716Z,19.77
2022-12-03T13:06:36.135Z,15.88
2022-12-03T13:07:57.307Z,55.83
2022-12-03T13:09:23.817Z,41.33
2022-12-03T13:10:45.498Z,22.58
2022-12-03T13:12:19.571Z,12.85
2022-12-03T13:13:44.231Z,12.85
2022-12-03T13:15:21.607Z,10.07
2022-12-03T13:16:43.256Z,12.32
2022-12-03T13:18:39.867Z,15.27
2022-12-03T13:20:07.668Z,16.77
2022-12-03T13:21:41.384Z,20.33
2022-12-03T13:23:02.455Z,12.90
2022-12-03T13:24:34.224Z,13.18
2022-12-03T13:26:03.706Z,7.68
2022-12-03T13:27:30.729Z,8.98
2022-12-03T13:28:53.630Z,13.73
2022-12-03T13:30:18.977Z,16.83
2022-12-03T13:31:43.845Z,18.73
2022-12-03T13:33:26.588Z,13.18
2022-12-03T13:34:48.048Z,16.70
2022-12-03T13:36:15.162Z,10.70
2022-12-03T13:37:37.626Z,20.52
2022-12-03T13:38:58.781Z,20.17
2022-12-03T13:40:32.961Z,26.30
2022-12-03T13:42:13.467Z,26.63
2022-12-03T13:43:44.367Z,18.60
2022-12-03T13:45:15.142Z,18.50
2022-12-03T13:46:36.564Z,14.52
2022-12-03T13:48:02.901Z,31.88
2022-12-03T13:49:24.541Z,24.55
2022-12-03T13:50:46.191Z,26.63
2022-12-03T13:52:15.721Z,30.90
2022-12-03T13:53:40.423Z,32.63
2022-12-03T13:55:03.982Z,23.02
2022-12-03T13:56:33.035Z,31.05
2022-12-03T13:57:54.721Z,19.83
2022-12-03T13:59:19.286Z,19.70
2022-12-03T14:00:42.975Z,8.15
2022-12-03T14:02:04.035Z,11.95
2022-12-03T14:03:25.189Z,11.30
2022-12-03T14:04:46.413Z,10.65
2022-12-03T14:06:07.632Z,17.77
2022-12-03T14:07:28.913Z,39.20
2022-12-03T14:08:50.067Z,36.70
2022-12-03T14:10:12.287Z,37.47
2022-12-03T14:11:51.955Z,40.58
2022-12-03T14:13:13.132Z,42.90
2022-12-03T14:14:34.973Z,62.90
2022-12-03T14:15:56.123Z,80.20
2022-12-03T14:17:17.345Z,75.40
2022-12-03T14:18:38.380Z,161.65
2022-12-03T14:20:01.563Z,95.57
2022-12-03T14:21:25.770Z,56.00
2022-12-03T14:22:52.013Z,93.15
2022-12-03T14:24:17.103Z,49.10
2022-12-03T14:25:38.381Z,73.20
2022-12-03T14:26:59.503Z,92.22
2022-12-03T14:28:20.850Z,85.05
2022-12-03T14:29:41.707Z,53.72
2022-12-03T14:31:02.882Z,45.03
2022-12-03T14:32:23.974Z,39.60
2022-12-03T14:33:44.997Z,43.53
2022-12-03T14:35:09.871Z,41.47
2022-12-03T14:36:31.214Z,38.53
2022-12-03T14:37:52.277Z,48.90
2022-12-03T14:39:13.358Z,43.13
2022-12-03T14:40:34.669Z,41.42
2022-12-03T14:42:14.368Z,47.10
2022-12-03T14:44:56.287Z,43.28
2022-12-03T14:46:17.217Z,45.08
2022-12-03T14:47:38.731Z,55.35
2022-12-03T14:48:59.638Z,72.35
2022-12-03T14:50:20.999Z,118.82
2022-12-03T14:51:42.010Z,151.73
2022-12-03T14:53:03.256Z,179.70
2022-12-03T14:54:24.716Z,204.57
2022-12-03T14:55:48.097Z,253.15
2022-12-03T14:57:09.563Z,251.07
2022-12-03T14:58:30.656Z,240.23
2022-12-03T14:59:55.601Z,208.73
2022-12-03T15:01:16.889Z,193.80
2022-12-03T15:02:38.121Z,197.27
2022-12-03T15:04:01.737Z,230.10
2022-12-03T15:05:28.157Z,256.70
2022-12-03T15:06:49.865Z,248.38
2022-12-03T15:08:11.113Z,225.50
2022-12-03T15:09:32.467Z,261.17
2022-12-03T15:10:54.010Z,217.60
2022-12-03T15:12:14.806Z,206.23
2022-12-03T15:13:36.000Z,182.98
2022-12-03T15:14:57.119Z,160.43
2022-12-03T15:16:18.431Z,192.15
2022-12-03T15:17:40.026Z,554.47
2022-12-03T15:19:01.369Z,314.13
2022-12-03T15:20:22.887Z,172.35
2022-12-03T15:21:44.143Z,121.72
2022-12-03T15:23:08.796Z,115.65
2022-12-03T15:24:32.164Z,131.00
2022-12-03T15:25:53.533Z,111.90
2022-12-03T15:27:16.161Z,99.95
2022-12-03T15:28:37.330Z,93.45
2022-12-03T15:29:58.474Z,138.52
2022-12-03T15:31:19.513Z,135.48
2022-12-03T15:32:40.729Z,186.23
2022-12-03T15:34:01.739Z,278.77
2022-12-03T15:35:23.185Z,440.23
2022-12-03T15:36:44.348Z,414.48
2022-12-03T15:38:05.548Z,416.58
2022-12-03T15:39:26.791Z,520.72
2022-12-03T15:40:48.044Z,559.88
2022-12-03T15:42:11.393Z,395.58
2022-12-03T15:43:32.516Z,857.10
2022-12-03T15:44:53.669Z,175.23
2022-12-03T15:46:14.636Z,92.35
2022-12-03T15:47:35.368Z,77.32
2022-12-03T15:48:56.493Z,64.72
2022-12-03T15:50:17.772Z,64.78
2022-12-03T15:51:39.342Z,63.40
2022-12-03T15:53:00.617Z,64.35
2022-12-03T15:54:21.943Z,65.43
2022-12-03T15:55:43.232Z,65.88
2022-12-03T15:57:04.192Z,76.65
2022-12-03T15:58:25.411Z,104.93
2022-12-03T15:59:46.313Z,118.50
2022-12-03T16:01:08.953Z,109.32
2022-12-03T16:02:33.881Z,107.68
2022-12-03T16:03:55.024Z,64.60
2022-12-03T16:05:16.643Z,47.65
2022-12-03T16:06:37.853Z,52.83
2022-12-03T16:07:59.164Z,54.85
2022-12-03T16:09:26.687Z,54.38
2022-12-03T16:10:48.565Z,51.03
2022-12-03T16:12:09.558Z,46.95
2022-12-03T16:13:30.830Z,48.60
2022-12-03T16:14:51.983Z,61.83
2022-12-03T16:16:13.275Z,58.08
2022-12-03T16:17:36.928Z,49.97
2022-12-03T16:18:58.278Z,49.08
2022-12-03T16:20:19.406Z,51.30
2022-12-03T16:21:40.692Z,54.63
2022-12-03T16:23:01.828Z,46.22
2022-12-03T16:24:22.934Z,36.72
2022-12-03T16:25:44.133Z,52.75
2022-12-03T16:27:05.370Z,124.65
2022-12-03T16:28:26.465Z,122.38
2022-12-03T16:29:47.741Z,104.68
2022-12-03T16:31:08.902Z,84.53
2022-12-03T16:32:30.061Z,83.22
2022-12-03T16:33:51.368Z,83.72
2022-12-03T16:35:12.837Z,68.65
2022-12-03T16:36:34.036Z,83.72
2022-12-03T16:37:55.226Z,111.53
2022-12-03T16:39:16.643Z,120.40
2022-12-03T16:40:38.157Z,85.75
2022-12-03T16:41:59.435Z,76.47
2022-12-03T16:43:20.826Z,118.22
2022-12-03T16:45:05.139Z,110.68
2022-12-03T16:46:26.740Z,89.95
2022-12-03T16:47:48.192Z,71.95
2022-12-03T16:49:09.482Z,88.93
2022-12-03T16:50:30.650Z,87.32
2022-12-03T16:51:52.120Z,76.78
2022-12-03T16:53:13.527Z,76.07
2022-12-03T16:54:34.756Z,69.38
2022-12-03T16:55:55.686Z,66.93
2022-12-03T16:57:17.042Z,66.35
2022-12-03T16:58:46.758Z,60.28
2022-12-03T17:00:26.651Z,66.10
2022-12-03T17:01:47.586Z,63.47
2022-12-03T17:03:08.816Z,50.42
2022-12-03T17:04:32.970Z,48.20
2022-12-03T17:05:54.251Z,40.05
2022-12-03T17:07:15.127Z,42.63
2022-12-03T17:08:36.712Z,47.08
2022-12-03T17:09:58.026Z,110.20
2022-12-03T17:11:19.448Z,171.15
2022-12-03T17:13:07.804Z,130.93
2022-12-03T17:14:21.584Z,143.23
2022-12-03T17:15:42.764Z,116.15
2022-12-03T17:17:03.839Z,102.18
2022-12-03T17:18:25.997Z,87.13
2022-12-03T17:19:47.373Z,80.38
2022-12-03T17:21:08.533Z,80.45
2022-12-03T17:22:29.582Z,84.50
2022-12-03T17:23:51.153Z,83.13
2022-12-03T17:25:12.832Z,83.72
2022-12-03T17:26:33.998Z,88.38
2022-12-03T17:27:55.033Z,72.68
2022-12-03T17:29:15.997Z,83.65
2022-12-03T17:30:37.202Z,94.25
2022-12-03T17:31:58.504Z,91.13
2022-12-03T17:33:19.631Z,86.47
2022-12-03T17:34:40.599Z,91.53
2022-12-03T17:36:02.004Z,102.35
2022-12-03T17:37:23.068Z,81.18
2022-12-03T17:38:44.326Z,93.13
2022-12-03T17:40:07.517Z,69.28
2022-12-03T17:41:28.705Z,100.55
2022-12-03T17:42:49.887Z,82.18
2022-12-03T17:44:15.094Z,98.35
2022-12-03T17:45:38.780Z,94.15
2022-12-03T17:47:00.288Z,161.93
2022-12-03T17:48:21.788Z,145.43
2022-12-03T17:49:42.692Z,48.97
2022-12-03T17:51:03.605Z,51.17
2022-12-03T17:52:24.713Z,50.15
2022-12-03T17:53:45.705Z,37.40
2022-12-03T17:55:14.006Z,28.73
2022-12-03T17:56:39.445Z,33.60
2022-12-03T17:58:00.712Z,33.35
2022-12-03T17:59:21.831Z,36.03
2022-12-03T18:00:43.945Z,39.90